KSHR

Sheridan County Airport

Sheridan, Wyoming, USA
METAR KSHR 260353Z AUTO 00000KT 10SM CLR 17/13 A2989 RMK AO2 SLP088 T01670128
Observed Flight Rules
May-26 @ 03:53 UTC (27 minutes ago) Visual Flight Rules
Visibility Clouds
10 miles
  • Clear skies
Temperatures Readings
Current 17°C / 63°F
Dewpoint 13°C / 55°F
Humidity 77%
Altimeter 29.89" Hg
Pressure 1008.8 hPa
Elevation 1202
METAR KSHR 260353Z AUTO 00000KT 10SM CLR 17/13 A2989 RMK AO2 SLP088 T01670128
Observed Flight Rules
May-26 @ 03:53 UTC
(27 minutes ago)
VFR
Clouds
  • Clear skies
Temperature Dewpoint
17°C / 63°F 13°C / 55°F
Humidity Altimeter Pressure
77% 29.89" Hg 1008.8 hPa